Jacksonville, FL

6:04 AM EDT on October 01, 2014 (GMT -0400)
Cecil | Change Station
CLOSE
Current Station
Airport
Location: Cecil Field,
Elevation: 82 ft
Nearby Weather Stations

Elev 82 ft 30.22 °N, 81.88 °W | Updated 29 minutes ago

Overcast
Overcast
70 °F
Feels Like 70 °F
N
0
Wind Variable Wind from North

Today
High -- | Low -- °F
--% Chance of Precip.
Yesterday
High -- | Low -- °F
Precip. -- in
7:20 AM 7:12 PM
Waxing Crescent, 46% visible
Pressure 29.90 in
Visibility 10.0 miles
Clouds Few 4300 ft
Overcast 6000 ft
Dew Point 68 °F
Humidity 94%
Rainfall 0.03 in
Snow Depth Not available.
UV 0 out of 12
Pollen 4.40 out of 12
Ozone Good
PM2.5 Good
Flu Activity Not available.
METAR KVQQ 010935Z AUTO 00000KT 10SM FEW043 OVC060 21/20 A2990 RMK AO2

More Conditions Fewer Conditions

Pressure 29.90 in
Visibility 10.0 miles
Clouds Few 4300 ft
Overcast 6000 ft
Dew Point 68 °F
Humidity 94%
Rainfall 0.03 in
Snow Depth Not available.
UV 0 out of 12
Pollen 4.40 out of 12
Ozone Good
PM2.5 Good
Flu Activity Not available.
METAR KVQQ 010935Z AUTO 00000KT 10SM FEW043 OVC060 21/20 A2990 RMK AO2

More Conditions Fewer Conditions

10-Day Weather Forecast

Almanac

Astronomy

Oct. 01, 2014 Rise Set
Actual Time 7:20 AM EDT 7:12 PM EDT
Civil Twilight 6:57 AM EDT 7:36 PM EDT
Nautical Twilight 6:29 AM EDT 8:04 PM EDT
Astronomical Twilight 6:01 AM EDT 8:32 PM EDT
Moon 2:02 PM EDT 12:01 AM EDT
Length of Visible Light 12h 39m
Length of Day
11h 51m
Tomorrow will be 1m 48s shorter.
Waxing Crescent, 46% of the Moon is Illuminated
Today
Waxing Crescent
Oct 1
First Quarter
Oct 8
Full
Oct 15
Last Quarter
Oct 23
New

Today's Extremes

State Highs State Lows

Community

WunderPhotos

Upload Photos

1,757,904 photos uploaded!

WunderBlogs® & News

Nearby

Air Quality

  Air Quality AQ Index Pollutant
Yesterday Good
OZONE
Yesterday Good
PM2.5
Current Good
OZONE
Current Good
PM2.5
Wednesday Good
OZONE
Wednesday Good
PM2.5

Snow Depth

Station Depth Elevation
No new snow has been reported.

Earthquake Activity

City Distance Mag. Time & Date
No recent earthquake activity has been reported nearby.
Minimum magnitude displayed is 2.5.

Coastal Water Temperatures

Place Temperature
Mayport (Bar Pilots Dock), FL 79.0 °F
Fernandina Beach, FL 78.1 °F

Nearby Weather Stations